createdAt,value
2022-08-30T00:00:40.046Z,100.00
2022-08-30T00:03:14.801Z,100.00
2022-08-30T00:05:45.485Z,100.00
2022-08-30T00:08:15.154Z,100.00
2022-08-30T00:10:44.282Z,100.00
2022-08-30T00:13:14.938Z,100.00
2022-08-30T00:15:44.040Z,100.00
2022-08-30T00:18:15.845Z,100.00
2022-08-30T00:20:45.628Z,100.00
2022-08-30T00:23:15.063Z,100.00
2022-08-30T00:25:44.638Z,100.00
2022-08-30T00:28:13.871Z,100.00
2022-08-30T00:30:43.530Z,100.00
2022-08-30T00:33:15.550Z,100.00
2022-08-30T00:35:44.835Z,100.00
2022-08-30T00:38:14.967Z,100.00
2022-08-30T00:40:45.898Z,100.00
2022-08-30T00:43:18.138Z,100.00
2022-08-30T00:45:48.427Z,100.00
2022-08-30T00:48:19.040Z,100.00
2022-08-30T00:50:50.708Z,100.00
2022-08-30T00:53:23.178Z,100.00
2022-08-30T00:55:53.613Z,100.00
2022-08-30T00:58:28.272Z,100.00
2022-08-30T01:00:59.690Z,100.00
2022-08-30T01:03:31.650Z,100.00
2022-08-30T01:06:02.808Z,100.00
2022-08-30T01:08:31.967Z,100.00
2022-08-30T01:11:01.498Z,100.00
2022-08-30T01:13:31.710Z,100.00
2022-08-30T01:16:01.515Z,100.00
2022-08-30T01:18:33.176Z,100.00
2022-08-30T01:21:10.827Z,100.00
2022-08-30T01:23:44.271Z,100.00
2022-08-30T01:26:15.973Z,100.00
2022-08-30T01:28:48.017Z,100.00
2022-08-30T01:31:17.397Z,100.00
2022-08-30T01:33:46.551Z,100.00
2022-08-30T01:36:15.897Z,100.00
2022-08-30T01:38:49.257Z,100.00
2022-08-30T01:41:21.525Z,100.00
2022-08-30T01:43:52.308Z,100.00
2022-08-30T01:46:24.667Z,100.00
2022-08-30T01:48:56.145Z,100.00
2022-08-30T01:51:27.670Z,100.00
2022-08-30T01:53:58.334Z,100.00
2022-08-30T01:56:29.050Z,100.00
2022-08-30T01:59:02.410Z,100.00
2022-08-30T02:01:34.151Z,100.00
2022-08-30T02:04:03.804Z,100.00
2022-08-30T02:06:33.009Z,100.00
2022-08-30T02:09:03.283Z,100.00
2022-08-30T02:11:32.502Z,100.00
2022-08-30T02:14:01.425Z,100.00
2022-08-30T02:16:30.507Z,100.00
2022-08-30T02:19:00.308Z,100.00
2022-08-30T02:21:32.146Z,100.00
2022-08-30T02:24:02.582Z,100.00
2022-08-30T02:26:31.504Z,100.00
2022-08-30T02:29:01.447Z,100.00
2022-08-30T02:31:30.333Z,100.00
2022-08-30T02:33:59.204Z,100.00
2022-08-30T02:36:28.193Z,100.00
2022-08-30T02:38:56.994Z,100.00
2022-08-30T02:41:27.156Z,100.00
2022-08-30T02:43:58.591Z,100.00
2022-08-30T02:46:28.399Z,100.00
2022-08-30T02:49:23.767Z,100.00
2022-08-30T02:51:51.742Z,100.00
2022-08-30T02:54:20.851Z,100.00
2022-08-30T02:56:51.821Z,100.00
2022-08-30T02:59:21.085Z,100.00
2022-08-30T03:01:50.217Z,100.00
2022-08-30T03:04:20.307Z,100.00
2022-08-30T03:06:56.006Z,100.00
2022-08-30T03:09:24.790Z,100.00
2022-08-30T03:11:55.123Z,100.00
2022-08-30T03:14:24.297Z,100.00
2022-08-30T03:16:53.444Z,100.00
2022-08-30T03:19:22.765Z,100.00
2022-08-30T03:21:51.613Z,100.00
2022-08-30T03:24:20.719Z,100.00
2022-08-30T03:26:49.616Z,100.00
2022-08-30T03:29:19.842Z,100.00
2022-08-30T03:31:53.182Z,100.00
2022-08-30T03:34:23.774Z,100.00
2022-08-30T03:36:53.675Z,100.00
2022-08-30T03:39:24.794Z,100.00
2022-08-30T03:41:54.044Z,100.00
2022-08-30T03:44:24.411Z,100.00
2022-08-30T03:46:53.668Z,100.00
2022-08-30T03:49:22.628Z,100.00
2022-08-30T03:51:52.179Z,100.00
2022-08-30T03:54:21.110Z,100.00
2022-08-30T03:56:50.251Z,100.00
2022-08-30T03:59:19.524Z,100.00
2022-08-30T04:01:49.729Z,100.00
2022-08-30T04:04:21.125Z,100.00
2022-08-30T04:06:50.701Z,100.00
2022-08-30T04:09:40.514Z,100.00
2022-08-30T04:12:09.733Z,100.00
2022-08-30T04:14:38.679Z,100.00
2022-08-30T04:17:08.981Z,100.00
2022-08-30T04:19:37.709Z,100.00
2022-08-30T04:22:07.085Z,100.00
2022-08-30T04:24:38.526Z,100.00
2022-08-30T04:27:07.787Z,100.00
2022-08-30T04:29:36.947Z,100.00
2022-08-30T04:32:06.466Z,100.00
2022-08-30T04:34:36.625Z,100.00
2022-08-30T04:37:05.657Z,100.00
2022-08-30T04:39:40.177Z,100.00
2022-08-30T04:42:10.860Z,100.00
2022-08-30T04:44:39.735Z,100.00
2022-08-30T04:47:10.412Z,100.00
2022-08-30T04:49:40.976Z,100.00
2022-08-30T04:52:11.065Z,100.00
2022-08-30T04:54:39.906Z,100.00
2022-08-30T04:57:08.851Z,100.00
2022-08-30T04:59:39.080Z,100.00
2022-08-30T05:02:09.568Z,100.00
2022-08-30T05:05:01.432Z,100.00
2022-08-30T05:07:30.709Z,100.00
2022-08-30T05:10:00.351Z,100.00
2022-08-30T05:12:29.534Z,100.00
2022-08-30T05:14:58.643Z,100.00
2022-08-30T05:17:27.662Z,100.00
2022-08-30T05:19:57.891Z,100.00
2022-08-30T05:22:26.734Z,100.00
2022-08-30T05:24:55.680Z,100.00
2022-08-30T05:27:24.660Z,100.00
2022-08-30T05:29:53.867Z,100.00
2022-08-30T05:32:22.915Z,100.00
2022-08-30T05:34:52.727Z,100.00
2022-08-30T05:37:23.081Z,100.00
2022-08-30T05:39:52.079Z,100.00
2022-08-30T05:42:21.235Z,100.00
2022-08-30T05:44:53.616Z,100.00
2022-08-30T05:47:23.570Z,100.00
2022-08-30T05:49:52.718Z,100.00
2022-08-30T05:52:23.215Z,100.00
2022-08-30T05:54:55.790Z,100.00
2022-08-30T05:57:24.561Z,100.00
2022-08-30T05:59:53.359Z,100.00
2022-08-30T06:02:22.164Z,100.00
2022-08-30T06:04:51.095Z,100.00
2022-08-30T06:07:23.158Z,100.00
2022-08-30T06:09:51.942Z,100.00
2022-08-30T06:12:21.010Z,100.00
2022-08-30T06:14:49.839Z,100.00
2022-08-30T06:17:23.058Z,100.00
2022-08-30T06:19:51.933Z,100.00
2022-08-30T06:22:22.083Z,100.00
2022-08-30T06:24:57.585Z,100.00
2022-08-30T06:27:26.984Z,100.00
2022-08-30T06:29:55.809Z,100.00
2022-08-30T06:32:24.764Z,100.00
2022-08-30T06:34:53.478Z,100.00
2022-08-30T06:37:29.792Z,100.00
2022-08-30T06:39:59.785Z,100.00
2022-08-30T06:42:32.346Z,100.00
2022-08-30T06:45:01.618Z,100.00
2022-08-30T06:47:30.806Z,100.00
2022-08-30T06:50:00.625Z,100.00
2022-08-30T06:52:31.612Z,100.00
2022-08-30T06:55:00.748Z,100.00
2022-08-30T06:57:29.645Z,100.00
2022-08-30T06:59:59.758Z,100.00
2022-08-30T07:02:29.710Z,100.00
2022-08-30T07:04:58.832Z,100.00
2022-08-30T07:07:28.109Z,100.00
2022-08-30T07:09:59.729Z,100.00
2022-08-30T07:12:29.138Z,100.00
2022-08-30T07:14:58.088Z,100.00
2022-08-30T07:17:44.191Z,100.00
2022-08-30T07:20:13.590Z,100.00
2022-08-30T07:22:42.551Z,100.00
2022-08-30T07:25:12.840Z,100.00
2022-08-30T07:27:43.203Z,100.00
2022-08-30T07:30:13.480Z,100.00
2022-08-30T07:32:42.925Z,100.00
2022-08-30T07:35:12.191Z,100.00
2022-08-30T07:37:41.199Z,100.00
2022-08-30T07:40:13.201Z,100.00
2022-08-30T07:42:42.426Z,100.00
2022-08-30T07:45:12.827Z,100.00
2022-08-30T07:47:42.687Z,100.00
2022-08-30T07:50:11.819Z,100.00
2022-08-30T07:52:41.067Z,100.00
2022-08-30T07:55:12.134Z,100.00
2022-08-30T07:57:42.045Z,100.00
2022-08-30T08:00:11.960Z,100.00
2022-08-30T08:02:42.001Z,100.00
2022-08-30T08:05:15.176Z,98.18
2022-08-30T08:07:46.249Z,100.00
2022-08-30T08:10:17.764Z,100.00
2022-08-30T08:12:46.449Z,100.00
2022-08-30T08:15:16.065Z,100.00
2022-08-30T08:17:44.993Z,100.00
2022-08-30T08:20:13.825Z,96.58
2022-08-30T08:22:42.675Z,95.52
2022-08-30T08:25:11.461Z,95.03
2022-08-30T08:27:41.875Z,94.57
2022-08-30T08:30:11.957Z,95.21
2022-08-30T08:32:43.519Z,96.78
2022-08-30T08:35:12.804Z,86.55
2022-08-30T08:37:42.625Z,86.22
2022-08-30T08:40:15.624Z,82.36
2022-08-30T08:42:52.545Z,78.21
2022-08-30T08:45:34.161Z,73.03
2022-08-30T08:48:09.649Z,70.29
2022-08-30T08:51:02.793Z,67.09
2022-08-30T08:53:46.629Z,68.82
2022-08-30T08:56:18.690Z,65.40
2022-08-30T08:58:51.883Z,64.23
2022-08-30T09:01:24.121Z,63.00
2022-08-30T09:03:53.742Z,62.70
2022-08-30T09:06:45.078Z,69.67
2022-08-30T09:09:15.639Z,62.14
2022-08-30T09:11:44.812Z,63.26
2022-08-30T09:14:20.519Z,61.64
2022-08-30T09:16:58.100Z,59.57
2022-08-30T09:19:39.920Z,59.26
2022-08-30T09:22:34.593Z,59.54
2022-08-30T09:25:06.096Z,61.50
2022-08-30T09:27:37.238Z,62.86
2022-08-30T09:30:14.860Z,57.58
2022-08-30T09:32:51.449Z,57.40
2022-08-30T09:35:23.869Z,63.49
2022-08-30T09:37:58.803Z,60.05
2022-08-30T09:40:34.665Z,61.15
2022-08-30T09:43:11.903Z,58.33
2022-08-30T09:45:44.215Z,54.77
2022-08-30T09:48:30.269Z,59.51
2022-08-30T09:51:20.888Z,60.28
2022-08-30T09:54:17.088Z,58.96
2022-08-30T09:56:57.946Z,59.11
2022-08-30T09:59:41.638Z,54.89
2022-08-30T10:02:48.328Z,55.06
2022-08-30T10:05:26.430Z,55.38
2022-08-30T10:08:03.119Z,57.12
2022-08-30T10:10:39.362Z,53.07
2022-08-30T10:13:38.447Z,53.36
2022-08-30T10:16:17.920Z,53.64
2022-08-30T10:19:00.885Z,58.14
2022-08-30T10:21:38.462Z,51.43
2022-08-30T10:24:11.931Z,43.33
2022-08-30T10:26:46.858Z,37.73
2022-08-30T10:29:23.509Z,33.08
2022-08-30T10:31:59.721Z,34.19
2022-08-30T10:34:40.099Z,33.68
2022-08-30T10:37:13.465Z,33.31
2022-08-30T10:39:50.477Z,37.09
2022-08-30T10:42:22.695Z,34.97
2022-08-30T10:44:59.119Z,30.07
2022-08-30T10:47:37.535Z,32.51
2022-08-30T10:50:19.870Z,34.30
2022-08-30T10:52:54.239Z,31.88
2022-08-30T10:55:27.182Z,30.03
2022-08-30T10:58:02.250Z,31.38
2022-08-30T11:00:37.506Z,28.61
2022-08-30T11:03:36.377Z,32.73
2022-08-30T11:06:19.608Z,28.66
2022-08-30T11:09:09.995Z,31.06
2022-08-30T11:11:53.510Z,30.74
2022-08-30T11:14:25.416Z,27.54
2022-08-30T11:16:57.710Z,26.80
2022-08-30T11:19:32.211Z,26.47
2022-08-30T11:22:15.214Z,28.89
2022-08-30T11:25:09.905Z,27.60
2022-08-30T11:27:51.990Z,27.80
2022-08-30T11:30:52.851Z,26.22
2022-08-30T11:33:44.986Z,26.94
2022-08-30T11:36:48.219Z,26.70
2022-08-30T11:45:46.583Z,25.89
2022-08-30T11:48:54.277Z,27.01
2022-08-30T11:55:03.825Z,26.25
2022-08-30T11:57:46.586Z,25.48
2022-08-30T12:00:31.506Z,23.78
2022-08-30T12:03:06.468Z,22.29
2022-08-30T12:05:53.058Z,24.45
2022-08-30T12:08:47.263Z,23.50
2022-08-30T12:12:02.534Z,25.09
2022-08-30T12:14:57.684Z,26.21
2022-08-30T12:17:50.706Z,22.45
2022-08-30T12:20:25.275Z,23.02
2022-08-30T12:22:55.481Z,22.06
2022-08-30T12:25:32.073Z,24.20
2022-08-30T12:28:12.939Z,23.58
2022-08-30T12:30:46.515Z,21.00
2022-08-30T12:33:29.323Z,22.81
2022-08-30T12:35:59.790Z,23.05
2022-08-30T12:38:30.917Z,23.73
2022-08-30T12:41:05.705Z,21.78
2022-08-30T12:43:41.355Z,23.18
2022-08-30T12:46:16.185Z,23.65
2022-08-30T12:48:46.312Z,23.09
2022-08-30T12:51:31.525Z,21.59
2022-08-30T12:54:16.548Z,21.83
2022-08-30T12:56:56.051Z,21.98
2022-08-30T12:59:59.635Z,20.32
2022-08-30T13:02:44.633Z,24.01
2022-08-30T13:05:33.335Z,24.68
2022-08-30T13:08:21.311Z,25.36
2022-08-30T13:10:55.288Z,20.74
2022-08-30T13:13:37.539Z,20.98
2022-08-30T13:16:29.425Z,21.68
2022-08-30T13:19:27.760Z,21.05
2022-08-30T13:21:58.291Z,21.21
2022-08-30T13:24:27.309Z,20.96
2022-08-30T13:26:57.939Z,22.71
2022-08-30T13:29:28.184Z,23.22
2022-08-30T13:31:58.193Z,20.07
2022-08-30T13:34:33.140Z,22.47
2022-08-30T13:37:02.701Z,20.08
2022-08-30T13:39:32.026Z,22.12
2022-08-30T13:44:52.407Z,20.71
2022-08-30T13:47:38.121Z,20.72
2022-08-30T13:50:09.849Z,21.55
2022-08-30T13:52:38.558Z,21.47
2022-08-30T13:55:08.882Z,21.56
2022-08-30T13:57:55.062Z,22.75
2022-08-30T14:00:25.436Z,23.73
2022-08-30T14:02:57.629Z,22.53
2022-08-30T14:11:12.735Z,23.74
2022-08-30T14:16:33.029Z,23.09
2022-08-30T14:19:02.964Z,24.04
2022-08-30T14:21:33.402Z,21.87
2022-08-30T14:24:02.293Z,21.08
2022-08-30T14:26:33.676Z,22.63
2022-08-30T14:29:03.108Z,24.74
2022-08-30T14:31:32.717Z,23.55
2022-08-30T14:34:04.236Z,21.08
2022-08-30T14:36:38.226Z,22.75
2022-08-30T14:39:10.728Z,21.62
2022-08-30T14:41:46.787Z,23.68
2022-08-30T14:44:18.012Z,21.84
2022-08-30T14:46:47.426Z,22.22
2022-08-30T14:49:17.881Z,23.34
2022-08-30T14:51:48.565Z,21.86
2022-08-30T14:54:18.986Z,20.77
2022-08-30T14:56:48.293Z,21.10
2022-08-30T14:59:18.425Z,20.52
2022-08-30T15:01:48.027Z,21.83
2022-08-30T15:04:18.098Z,27.84
2022-08-30T15:06:52.534Z,29.88
2022-08-30T15:09:24.779Z,30.78
2022-08-30T15:11:55.203Z,29.78
2022-08-30T15:14:28.548Z,29.86
2022-08-30T15:16:58.355Z,32.03
2022-08-30T15:19:28.910Z,29.98
2022-08-30T15:22:03.508Z,26.86
2022-08-30T15:24:33.576Z,24.98
2022-08-30T15:27:04.203Z,26.02
2022-08-30T15:29:35.150Z,27.04
2022-08-30T15:32:06.304Z,24.70
2022-08-30T15:34:35.963Z,25.23
2022-08-30T15:37:07.868Z,25.77
2022-08-30T15:39:37.957Z,25.53
2022-08-30T15:42:10.100Z,28.92
2022-08-30T15:44:39.743Z,28.01
2022-08-30T15:47:09.130Z,28.17
2022-08-30T15:49:38.409Z,28.33
2022-08-30T15:52:08.928Z,31.03
2022-08-30T15:54:37.930Z,32.78
2022-08-30T15:57:06.892Z,34.40
2022-08-30T15:59:35.937Z,36.01
2022-08-30T16:02:05.248Z,36.55
2022-08-30T16:04:34.610Z,37.14
2022-08-30T16:07:03.740Z,37.70
2022-08-30T16:09:35.201Z,38.68
2022-08-30T16:12:07.993Z,39.33
2022-08-30T16:14:43.333Z,38.85
2022-08-30T16:17:14.119Z,39.23
2022-08-30T16:19:43.317Z,39.42
2022-08-30T16:22:12.316Z,40.30
2022-08-30T16:24:46.986Z,40.10
2022-08-30T16:27:16.251Z,41.38
2022-08-30T16:29:45.353Z,41.21
2022-08-30T16:32:14.195Z,42.21
2022-08-30T16:34:43.230Z,42.14
2022-08-30T16:37:12.081Z,42.41
2022-08-30T16:39:41.405Z,42.08
2022-08-30T16:42:20.943Z,42.61
2022-08-30T16:44:50.497Z,43.08
2022-08-30T16:47:21.505Z,43.55
2022-08-30T16:49:51.999Z,44.01
2022-08-30T16:52:22.390Z,44.38
2022-08-30T16:54:52.306Z,44.67
2022-08-30T16:57:23.864Z,44.76
2022-08-30T16:59:52.886Z,44.96
2022-08-30T17:02:22.562Z,45.62
2022-08-30T17:04:53.155Z,46.08
2022-08-30T17:07:22.953Z,46.46
2022-08-30T17:09:52.811Z,47.04
2022-08-30T17:12:23.709Z,47.20
2022-08-30T17:14:53.552Z,47.85
2022-08-30T17:17:22.619Z,48.68
2022-08-30T17:19:52.245Z,49.37
2022-08-30T17:22:22.287Z,50.06
2022-08-30T17:24:52.411Z,50.58
2022-08-30T17:27:23.158Z,51.40
2022-08-30T17:29:52.375Z,52.35
2022-08-30T17:32:21.561Z,52.97
2022-08-30T17:34:53.639Z,53.81
2022-08-30T17:37:25.991Z,54.15
2022-08-30T17:39:58.422Z,54.69
2022-08-30T17:42:29.833Z,54.96
2022-08-30T17:45:03.586Z,55.39
2022-08-30T17:47:37.417Z,56.72
2022-08-30T17:50:09.075Z,56.62
2022-08-30T17:52:38.808Z,58.15
2022-08-30T17:55:11.171Z,57.97
2022-08-30T17:57:44.042Z,58.12
2022-08-30T18:00:15.850Z,59.13
2022-08-30T18:02:45.277Z,59.46
2022-08-30T18:05:14.151Z,59.22
2022-08-30T18:07:43.078Z,59.75
2022-08-30T18:10:13.403Z,60.80
2022-08-30T18:12:44.002Z,60.84
2022-08-30T18:15:15.984Z,61.09
2022-08-30T18:17:47.803Z,61.41
2022-08-30T18:20:18.324Z,61.70
2022-08-30T18:22:48.392Z,62.50
2022-08-30T18:25:27.334Z,62.43
2022-08-30T18:27:58.322Z,63.50
2022-08-30T18:30:34.054Z,63.88
2022-08-30T18:33:07.075Z,64.60
2022-08-30T18:35:36.473Z,65.58
2022-08-30T18:38:06.728Z,66.54
2022-08-30T18:40:36.109Z,68.77
2022-08-30T18:43:09.897Z,67.80
2022-08-30T18:45:42.870Z,68.09
2022-08-30T18:48:12.211Z,68.92
2022-08-30T18:50:43.955Z,69.20
2022-08-30T18:53:14.078Z,70.34
2022-08-30T18:55:58.623Z,70.77
2022-08-30T18:58:29.258Z,69.25
2022-08-30T19:00:58.317Z,69.56
2022-08-30T19:03:27.783Z,73.26
2022-08-30T19:06:05.085Z,68.87
2022-08-30T19:08:34.600Z,68.63
2022-08-30T19:11:05.050Z,69.03
2022-08-30T19:13:38.985Z,68.96
2022-08-30T19:16:12.186Z,69.29
2022-08-30T19:18:42.401Z,71.10
2022-08-30T19:21:13.535Z,74.12
2022-08-30T19:23:43.505Z,74.63
2022-08-30T19:26:12.349Z,74.88
2022-08-30T19:28:42.784Z,78.40
2022-08-30T19:31:12.383Z,74.96
2022-08-30T19:33:42.303Z,76.78
2022-08-30T19:36:11.756Z,76.41
2022-08-30T19:38:44.393Z,74.77
2022-08-30T19:41:14.602Z,79.47
2022-08-30T19:43:45.068Z,78.72
2022-08-30T19:46:18.611Z,78.84
2022-08-30T19:48:47.828Z,77.97
2022-08-30T19:51:17.316Z,79.75
2022-08-30T19:53:46.193Z,80.88
2022-08-30T19:56:15.193Z,81.90
2022-08-30T19:58:45.587Z,79.98
2022-08-30T20:01:33.203Z,85.37
2022-08-30T20:04:03.444Z,84.69
2022-08-30T20:06:33.769Z,83.96
2022-08-30T20:09:05.351Z,84.43
2022-08-30T20:11:42.367Z,84.82
2022-08-30T20:14:13.563Z,83.05
2022-08-30T20:16:43.160Z,85.13
2022-08-30T20:19:18.579Z,87.36
2022-08-30T20:21:50.941Z,87.12
2022-08-30T20:24:20.471Z,87.99
2022-08-30T20:26:49.520Z,89.52
2022-08-30T20:29:20.465Z,87.94
2022-08-30T20:31:52.023Z,87.80
2022-08-30T20:34:27.228Z,89.77
2022-08-30T20:36:56.350Z,89.18
2022-08-30T20:39:26.951Z,88.54
2022-08-30T20:41:55.809Z,90.98
2022-08-30T20:44:26.058Z,91.65
2022-08-30T20:46:54.982Z,91.78
2022-08-30T20:49:24.251Z,92.93
2022-08-30T20:51:54.213Z,93.29
2022-08-30T20:54:24.066Z,95.19
2022-08-30T20:56:53.083Z,94.20
2022-08-30T20:59:21.942Z,93.98
2022-08-30T21:01:52.070Z,96.84
2022-08-30T21:04:24.044Z,94.58
2022-08-30T21:06:53.130Z,95.44
2022-08-30T21:09:22.156Z,96.38
2022-08-30T21:11:51.170Z,96.38
2022-08-30T21:14:21.891Z,97.12
2022-08-30T21:16:52.408Z,96.54
2022-08-30T21:19:21.345Z,95.33
2022-08-30T21:21:50.195Z,95.21
2022-08-30T21:24:18.889Z,96.60
2022-08-30T21:26:47.722Z,98.04
2022-08-30T21:29:16.409Z,97.78
2022-08-30T21:31:45.299Z,100.00
2022-08-30T21:34:17.836Z,100.00
2022-08-30T21:36:46.079Z,98.95
2022-08-30T21:39:21.464Z,98.58
2022-08-30T21:41:54.495Z,100.00
2022-08-30T21:44:26.206Z,100.00
2022-08-30T21:46:56.362Z,100.00
2022-08-30T21:49:26.492Z,100.00
2022-08-30T21:51:56.606Z,100.00
2022-08-30T21:54:31.179Z,100.00
2022-08-30T21:57:02.067Z,100.00
2022-08-30T21:59:31.055Z,100.00
2022-08-30T22:02:01.061Z,100.00
2022-08-30T22:04:31.951Z,100.00
2022-08-30T22:07:02.332Z,100.00
2022-08-30T22:09:31.396Z,100.00
2022-08-30T22:12:00.768Z,100.00
2022-08-30T22:14:29.683Z,100.00
2022-08-30T22:16:59.041Z,100.00
2022-08-30T22:19:28.352Z,100.00
2022-08-30T22:22:04.342Z,100.00
2022-08-30T22:24:33.994Z,100.00
2022-08-30T22:27:05.206Z,100.00
2022-08-30T22:29:35.085Z,100.00
2022-08-30T22:32:04.651Z,100.00
2022-08-30T22:34:34.306Z,100.00
2022-08-30T22:37:04.985Z,100.00
2022-08-30T22:39:34.079Z,100.00
2022-08-30T22:42:03.241Z,100.00
2022-08-30T22:44:32.352Z,100.00
2022-08-30T22:47:02.094Z,100.00
2022-08-30T22:49:31.160Z,100.00
2022-08-30T22:52:00.945Z,100.00
2022-08-30T22:54:33.319Z,100.00
2022-08-30T22:57:04.470Z,100.00
2022-08-30T22:59:33.995Z,100.00
2022-08-30T23:02:03.372Z,100.00
2022-08-30T23:04:33.425Z,100.00
2022-08-30T23:07:02.411Z,100.00
2022-08-30T23:09:32.515Z,100.00
2022-08-30T23:12:01.518Z,100.00
2022-08-30T23:14:30.306Z,100.00
2022-08-30T23:16:59.462Z,100.00
2022-08-30T23:19:28.440Z,100.00
2022-08-30T23:21:57.570Z,100.00
2022-08-30T23:24:49.160Z,100.00
2022-08-30T23:27:37.011Z,100.00
2022-08-30T23:30:24.084Z,100.00
2022-08-30T23:33:11.532Z,100.00
2022-08-30T23:35:57.839Z,100.00
2022-08-30T23:38:44.278Z,100.00
2022-08-30T23:41:34.077Z,100.00
2022-08-30T23:44:22.308Z,100.00
2022-08-30T23:47:08.602Z,100.00
2022-08-30T23:49:54.829Z,100.00
2022-08-30T23:52:41.238Z,100.00
2022-08-30T23:55:27.813Z,100.00
2022-08-30T23:58:13.870Z,100.00
